sensor_id;sensor_type;location;lat;lon;timestamp;P1;durP1;ratioP1;P2;durP2;ratioP2
39264;SDS011;42646;51.910;7.724;2023-07-22T00:02:19;9.77;;;6.22;;
39264;SDS011;42646;51.910;7.724;2023-07-22T00:04:49;9.65;;;6.63;;
39264;SDS011;42646;51.910;7.724;2023-07-22T00:07:18;10.27;;;6.68;;
39264;SDS011;42646;51.910;7.724;2023-07-22T00:09:47;8.80;;;6.28;;
39264;SDS011;42646;51.910;7.724;2023-07-22T00:12:16;10.32;;;6.50;;
39264;SDS011;42646;51.910;7.724;2023-07-22T00:14:44;10.38;;;7.20;;
39264;SDS011;42646;51.910;7.724;2023-07-22T00:17:12;10.55;;;6.85;;
39264;SDS011;42646;51.910;7.724;2023-07-22T00:19:40;12.27;;;6.63;;
39264;SDS011;42646;51.910;7.724;2023-07-22T00:22:08;9.13;;;5.78;;
39264;SDS011;42646;51.910;7.724;2023-07-22T00:24:35;10.02;;;6.40;;
39264;SDS011;42646;51.910;7.724;2023-07-22T00:27:08;9.98;;;6.20;;
39264;SDS011;42646;51.910;7.724;2023-07-22T00:29:37;8.48;;;5.95;;
39264;SDS011;42646;51.910;7.724;2023-07-22T00:32:05;9.27;;;6.18;;
39264;SDS011;42646;51.910;7.724;2023-07-22T00:34:36;10.10;;;6.40;;
39264;SDS011;42646;51.910;7.724;2023-07-22T00:37:04;10.63;;;6.70;;
39264;SDS011;42646;51.910;7.724;2023-07-22T00:39:32;9.50;;;6.07;;
39264;SDS011;42646;51.910;7.724;2023-07-22T00:42:00;10.70;;;6.20;;
39264;SDS011;42646;51.910;7.724;2023-07-22T00:44:29;9.80;;;5.80;;
39264;SDS011;42646;51.910;7.724;2023-07-22T00:46:57;11.02;;;6.45;;
39264;SDS011;42646;51.910;7.724;2023-07-22T00:49:25;9.95;;;5.90;;
39264;SDS011;42646;51.910;7.724;2023-07-22T00:51:54;9.57;;;6.53;;
39264;SDS011;42646;51.910;7.724;2023-07-22T00:54:24;10.45;;;6.38;;
39264;SDS011;42646;51.910;7.724;2023-07-22T00:56:52;10.60;;;6.90;;
39264;SDS011;42646;51.910;7.724;2023-07-22T00:59:22;9.55;;;6.22;;
39264;SDS011;42646;51.910;7.724;2023-07-22T01:01:51;9.93;;;6.25;;
39264;SDS011;42646;51.910;7.724;2023-07-22T01:04:20;9.40;;;5.65;;
39264;SDS011;42646;51.910;7.724;2023-07-22T01:06:50;8.18;;;5.60;;
39264;SDS011;42646;51.910;7.724;2023-07-22T01:09:19;9.85;;;6.38;;
39264;SDS011;42646;51.910;7.724;2023-07-22T01:11:52;10.60;;;6.45;;
39264;SDS011;42646;51.910;7.724;2023-07-22T01:14:21;8.90;;;5.95;;
39264;SDS011;42646;51.910;7.724;2023-07-22T01:16:49;9.98;;;6.53;;
39264;SDS011;42646;51.910;7.724;2023-07-22T01:19:18;9.88;;;6.85;;
39264;SDS011;42646;51.910;7.724;2023-07-22T01:21:47;10.05;;;6.07;;
39264;SDS011;42646;51.910;7.724;2023-07-22T01:24:16;9.75;;;6.50;;
39264;SDS011;42646;51.910;7.724;2023-07-22T01:26:44;10.23;;;6.53;;
39264;SDS011;42646;51.910;7.724;2023-07-22T01:29:14;10.10;;;6.60;;
39264;SDS011;42646;51.910;7.724;2023-07-22T01:31:42;10.10;;;6.50;;
39264;SDS011;42646;51.910;7.724;2023-07-22T01:34:11;9.95;;;6.30;;
39264;SDS011;42646;51.910;7.724;2023-07-22T01:36:39;10.38;;;7.15;;
39264;SDS011;42646;51.910;7.724;2023-07-22T01:39:07;10.60;;;6.40;;
39264;SDS011;42646;51.910;7.724;2023-07-22T01:41:36;10.77;;;6.45;;
39264;SDS011;42646;51.910;7.724;2023-07-22T01:44:04;9.85;;;6.30;;
39264;SDS011;42646;51.910;7.724;2023-07-22T01:46:33;9.15;;;6.18;;
39264;SDS011;42646;51.910;7.724;2023-07-22T01:49:06;9.88;;;6.70;;
39264;SDS011;42646;51.910;7.724;2023-07-22T01:51:37;9.82;;;5.80;;
39264;SDS011;42646;51.910;7.724;2023-07-22T01:54:06;10.23;;;6.55;;
39264;SDS011;42646;51.910;7.724;2023-07-22T01:56:37;9.55;;;6.70;;
39264;SDS011;42646;51.910;7.724;2023-07-22T01:59:05;10.05;;;6.65;;
39264;SDS011;42646;51.910;7.724;2023-07-22T02:01:33;11.43;;;7.03;;
39264;SDS011;42646;51.910;7.724;2023-07-22T02:04:01;10.95;;;6.85;;
39264;SDS011;42646;51.910;7.724;2023-07-22T02:06:31;9.45;;;6.30;;
39264;SDS011;42646;51.910;7.724;2023-07-22T02:08:59;9.88;;;6.90;;
39264;SDS011;42646;51.910;7.724;2023-07-22T02:11:34;10.48;;;6.65;;
39264;SDS011;42646;51.910;7.724;2023-07-22T02:14:03;11.18;;;6.43;;
39264;SDS011;42646;51.910;7.724;2023-07-22T02:16:33;12.30;;;6.87;;
39264;SDS011;42646;51.910;7.724;2023-07-22T02:19:03;10.23;;;6.10;;
39264;SDS011;42646;51.910;7.724;2023-07-22T02:21:40;9.57;;;6.60;;
39264;SDS011;42646;51.910;7.724;2023-07-22T02:24:08;11.32;;;6.72;;
39264;SDS011;42646;51.910;7.724;2023-07-22T02:26:36;10.88;;;6.82;;
39264;SDS011;42646;51.910;7.724;2023-07-22T02:29:09;9.57;;;6.30;;
39264;SDS011;42646;51.910;7.724;2023-07-22T02:31:38;9.43;;;6.38;;
39264;SDS011;42646;51.910;7.724;2023-07-22T02:34:07;9.40;;;6.40;;
39264;SDS011;42646;51.910;7.724;2023-07-22T02:36:35;10.70;;;6.15;;
39264;SDS011;42646;51.910;7.724;2023-07-22T02:39:02;10.40;;;6.70;;
39264;SDS011;42646;51.910;7.724;2023-07-22T02:41:32;11.43;;;7.30;;
39264;SDS011;42646;51.910;7.724;2023-07-22T02:44:00;12.07;;;6.80;;
39264;SDS011;42646;51.910;7.724;2023-07-22T02:46:31;10.93;;;6.95;;
39264;SDS011;42646;51.910;7.724;2023-07-22T02:48:59;9.95;;;6.50;;
39264;SDS011;42646;51.910;7.724;2023-07-22T02:51:31;9.85;;;6.57;;
39264;SDS011;42646;51.910;7.724;2023-07-22T02:53:59;11.45;;;7.13;;
39264;SDS011;42646;51.910;7.724;2023-07-22T02:56:28;10.82;;;6.38;;
39264;SDS011;42646;51.910;7.724;2023-07-22T02:58:57;10.32;;;6.93;;
39264;SDS011;42646;51.910;7.724;2023-07-22T03:01:25;9.93;;;6.68;;
39264;SDS011;42646;51.910;7.724;2023-07-22T03:03:58;10.60;;;6.70;;
39264;SDS011;42646;51.910;7.724;2023-07-22T03:06:27;10.27;;;6.93;;
39264;SDS011;42646;51.910;7.724;2023-07-22T03:08:55;10.82;;;6.88;;
39264;SDS011;42646;51.910;7.724;2023-07-22T03:11:24;11.63;;;7.32;;
39264;SDS011;42646;51.910;7.724;2023-07-22T03:13:53;11.90;;;7.38;;
39264;SDS011;42646;51.910;7.724;2023-07-22T03:16:48;10.57;;;7.43;;
39264;SDS011;42646;51.910;7.724;2023-07-22T03:19:17;12.00;;;7.38;;
39264;SDS011;42646;51.910;7.724;2023-07-22T03:21:46;13.05;;;7.82;;
39264;SDS011;42646;51.910;7.724;2023-07-22T03:24:15;10.85;;;7.18;;
39264;SDS011;42646;51.910;7.724;2023-07-22T03:26:45;10.82;;;7.30;;
39264;SDS011;42646;51.910;7.724;2023-07-22T03:29:13;12.75;;;7.50;;
39264;SDS011;42646;51.910;7.724;2023-07-22T03:31:45;11.82;;;7.28;;
39264;SDS011;42646;51.910;7.724;2023-07-22T03:34:14;10.95;;;7.18;;
39264;SDS011;42646;51.910;7.724;2023-07-22T03:36:50;13.32;;;7.95;;
39264;SDS011;42646;51.910;7.724;2023-07-22T03:39:19;13.70;;;7.60;;
39264;SDS011;42646;51.910;7.724;2023-07-22T03:41:47;10.05;;;6.75;;
39264;SDS011;42646;51.910;7.724;2023-07-22T03:44:15;10.50;;;7.10;;
39264;SDS011;42646;51.910;7.724;2023-07-22T03:46:43;12.07;;;7.80;;
39264;SDS011;42646;51.910;7.724;2023-07-22T03:49:12;11.80;;;7.38;;
39264;SDS011;42646;51.910;7.724;2023-07-22T03:51:40;9.90;;;7.03;;
39264;SDS011;42646;51.910;7.724;2023-07-22T03:54:34;10.60;;;7.47;;
39264;SDS011;42646;51.910;7.724;2023-07-22T03:57:01;11.63;;;7.22;;
39264;SDS011;42646;51.910;7.724;2023-07-22T03:59:29;11.90;;;7.38;;
39264;SDS011;42646;51.910;7.724;2023-07-22T04:01:58;13.00;;;8.18;;
39264;SDS011;42646;51.910;7.724;2023-07-22T04:04:26;13.32;;;8.15;;
39264;SDS011;42646;51.910;7.724;2023-07-22T04:06:54;14.57;;;8.32;;
39264;SDS011;42646;51.910;7.724;2023-07-22T04:09:23;10.55;;;7.35;;
39264;SDS011;42646;51.910;7.724;2023-07-22T04:11:53;15.05;;;7.95;;
39264;SDS011;42646;51.910;7.724;2023-07-22T04:14:21;12.00;;;8.20;;
39264;SDS011;42646;51.910;7.724;2023-07-22T04:16:50;13.93;;;8.48;;
39264;SDS011;42646;51.910;7.724;2023-07-22T04:19:18;12.32;;;8.00;;
39264;SDS011;42646;51.910;7.724;2023-07-22T04:21:46;12.23;;;7.70;;
39264;SDS011;42646;51.910;7.724;2023-07-22T04:24:13;12.50;;;7.95;;
39264;SDS011;42646;51.910;7.724;2023-07-22T04:26:42;12.73;;;8.18;;
39264;SDS011;42646;51.910;7.724;2023-07-22T04:29:12;12.13;;;7.95;;
39264;SDS011;42646;51.910;7.724;2023-07-22T04:31:40;15.52;;;9.50;;
39264;SDS011;42646;51.910;7.724;2023-07-22T04:34:08;11.75;;;7.63;;
39264;SDS011;42646;51.910;7.724;2023-07-22T04:36:38;12.07;;;8.00;;
39264;SDS011;42646;51.910;7.724;2023-07-22T04:39:06;13.55;;;8.52;;
39264;SDS011;42646;51.910;7.724;2023-07-22T04:41:34;13.50;;;8.60;;
39264;SDS011;42646;51.910;7.724;2023-07-22T04:44:02;12.35;;;7.78;;
39264;SDS011;42646;51.910;7.724;2023-07-22T04:46:31;14.25;;;8.82;;
39264;SDS011;42646;51.910;7.724;2023-07-22T04:48:59;12.15;;;8.27;;
39264;SDS011;42646;51.910;7.724;2023-07-22T04:51:27;14.90;;;9.23;;
39264;SDS011;42646;51.910;7.724;2023-07-22T04:53:55;14.30;;;9.10;;
39264;SDS011;42646;51.910;7.724;2023-07-22T04:56:25;13.63;;;9.07;;
39264;SDS011;42646;51.910;7.724;2023-07-22T04:58:53;13.85;;;8.60;;
39264;SDS011;42646;51.910;7.724;2023-07-22T05:01:21;12.25;;;8.35;;
39264;SDS011;42646;51.910;7.724;2023-07-22T05:03:55;12.80;;;8.50;;
39264;SDS011;42646;51.910;7.724;2023-07-22T05:06:24;12.73;;;8.57;;
39264;SDS011;42646;51.910;7.724;2023-07-22T05:08:53;14.40;;;9.35;;
39264;SDS011;42646;51.910;7.724;2023-07-22T05:11:45;12.98;;;8.50;;
39264;SDS011;42646;51.910;7.724;2023-07-22T05:14:13;14.57;;;8.57;;
39264;SDS011;42646;51.910;7.724;2023-07-22T05:16:42;13.55;;;8.77;;
39264;SDS011;42646;51.910;7.724;2023-07-22T05:19:13;12.40;;;8.38;;
39264;SDS011;42646;51.910;7.724;2023-07-22T05:21:41;12.65;;;8.85;;
39264;SDS011;42646;51.910;7.724;2023-07-22T05:24:28;11.98;;;8.60;;
39264;SDS011;42646;51.910;7.724;2023-07-22T05:26:56;13.70;;;8.27;;
39264;SDS011;42646;51.910;7.724;2023-07-22T05:29:35;14.95;;;8.70;;
39264;SDS011;42646;51.910;7.724;2023-07-22T05:32:03;12.35;;;8.70;;
39264;SDS011;42646;51.910;7.724;2023-07-22T05:34:40;12.77;;;8.65;;
39264;SDS011;42646;51.910;7.724;2023-07-22T05:37:08;14.45;;;8.68;;
39264;SDS011;42646;51.910;7.724;2023-07-22T05:39:36;11.60;;;8.50;;
39264;SDS011;42646;51.910;7.724;2023-07-22T05:42:04;14.40;;;8.70;;
39264;SDS011;42646;51.910;7.724;2023-07-22T05:44:32;12.45;;;8.52;;
39264;SDS011;42646;51.910;7.724;2023-07-22T05:47:00;12.13;;;8.50;;
39264;SDS011;42646;51.910;7.724;2023-07-22T05:49:28;12.55;;;8.98;;
39264;SDS011;42646;51.910;7.724;2023-07-22T05:51:57;13.13;;;8.80;;
39264;SDS011;42646;51.910;7.724;2023-07-22T05:54:24;13.93;;;8.85;;
39264;SDS011;42646;51.910;7.724;2023-07-22T05:56:52;12.27;;;8.68;;
39264;SDS011;42646;51.910;7.724;2023-07-22T05:59:21;13.57;;;8.23;;
39264;SDS011;42646;51.910;7.724;2023-07-22T06:01:50;12.65;;;8.45;;
39264;SDS011;42646;51.910;7.724;2023-07-22T06:04:18;12.80;;;8.50;;
39264;SDS011;42646;51.910;7.724;2023-07-22T06:06:46;11.88;;;8.35;;
39264;SDS011;42646;51.910;7.724;2023-07-22T06:09:15;13.02;;;8.63;;
39264;SDS011;42646;51.910;7.724;2023-07-22T06:11:43;13.75;;;9.40;;
39264;SDS011;42646;51.910;7.724;2023-07-22T06:16:44;13.32;;;8.55;;
39264;SDS011;42646;51.910;7.724;2023-07-22T06:19:14;12.70;;;8.32;;
39264;SDS011;42646;51.910;7.724;2023-07-22T06:21:42;14.75;;;8.50;;
39264;SDS011;42646;51.910;7.724;2023-07-22T06:24:10;12.18;;;8.45;;
39264;SDS011;42646;51.910;7.724;2023-07-22T06:26:39;12.65;;;8.73;;
39264;SDS011;42646;51.910;7.724;2023-07-22T06:29:07;12.82;;;8.32;;
39264;SDS011;42646;51.910;7.724;2023-07-22T06:31:35;13.65;;;8.85;;
39264;SDS011;42646;51.910;7.724;2023-07-22T06:36:57;15.48;;;8.80;;
39264;SDS011;42646;51.910;7.724;2023-07-22T06:39:25;13.85;;;8.63;;
39264;SDS011;42646;51.910;7.724;2023-07-22T06:41:55;12.50;;;8.45;;
39264;SDS011;42646;51.910;7.724;2023-07-22T06:44:25;11.35;;;7.95;;
39264;SDS011;42646;51.910;7.724;2023-07-22T06:46:53;13.68;;;8.63;;
39264;SDS011;42646;51.910;7.724;2023-07-22T06:49:21;14.05;;;8.75;;
39264;SDS011;42646;51.910;7.724;2023-07-22T06:51:50;12.68;;;8.40;;
39264;SDS011;42646;51.910;7.724;2023-07-22T06:54:19;13.57;;;9.30;;
39264;SDS011;42646;51.910;7.724;2023-07-22T06:56:47;12.48;;;8.65;;
39264;SDS011;42646;51.910;7.724;2023-07-22T06:59:17;13.45;;;8.75;;
39264;SDS011;42646;51.910;7.724;2023-07-22T07:01:47;14.45;;;9.55;;
39264;SDS011;42646;51.910;7.724;2023-07-22T07:04:16;12.50;;;8.40;;
39264;SDS011;42646;51.910;7.724;2023-07-22T07:06:46;12.93;;;8.50;;
39264;SDS011;42646;51.910;7.724;2023-07-22T07:09:14;14.35;;;8.82;;
39264;SDS011;42646;51.910;7.724;2023-07-22T07:11:41;15.48;;;9.25;;
39264;SDS011;42646;51.910;7.724;2023-07-22T07:14:09;13.18;;;8.75;;
39264;SDS011;42646;51.910;7.724;2023-07-22T07:16:38;14.38;;;9.13;;
39264;SDS011;42646;51.910;7.724;2023-07-22T07:19:08;13.02;;;8.80;;
39264;SDS011;42646;51.910;7.724;2023-07-22T07:21:36;13.55;;;9.18;;
39264;SDS011;42646;51.910;7.724;2023-07-22T07:24:04;14.73;;;8.93;;
39264;SDS011;42646;51.910;7.724;2023-07-22T07:26:33;12.63;;;8.40;;
39264;SDS011;42646;51.910;7.724;2023-07-22T07:29:01;17.33;;;10.23;;
39264;SDS011;42646;51.910;7.724;2023-07-22T07:31:29;14.75;;;9.30;;
39264;SDS011;42646;51.910;7.724;2023-07-22T07:34:00;13.07;;;8.45;;
39264;SDS011;42646;51.910;7.724;2023-07-22T07:36:28;15.27;;;9.68;;
39264;SDS011;42646;51.910;7.724;2023-07-22T07:38:56;13.52;;;8.88;;
39264;SDS011;42646;51.910;7.724;2023-07-22T07:41:50;16.10;;;9.75;;
39264;SDS011;42646;51.910;7.724;2023-07-22T07:44:18;15.48;;;9.68;;
39264;SDS011;42646;51.910;7.724;2023-07-22T07:46:46;14.60;;;9.13;;
39264;SDS011;42646;51.910;7.724;2023-07-22T07:49:15;15.77;;;9.98;;
39264;SDS011;42646;51.910;7.724;2023-07-22T07:51:43;13.23;;;8.65;;
39264;SDS011;42646;51.910;7.724;2023-07-22T07:54:11;14.40;;;8.77;;
39264;SDS011;42646;51.910;7.724;2023-07-22T07:56:42;14.38;;;8.70;;
39264;SDS011;42646;51.910;7.724;2023-07-22T07:59:10;14.82;;;9.32;;
39264;SDS011;42646;51.910;7.724;2023-07-22T08:01:42;12.77;;;8.52;;
39264;SDS011;42646;51.910;7.724;2023-07-22T08:04:10;18.17;;;10.68;;
39264;SDS011;42646;51.910;7.724;2023-07-22T08:06:39;14.95;;;9.32;;
39264;SDS011;42646;51.910;7.724;2023-07-22T08:09:07;15.27;;;8.85;;
39264;SDS011;42646;51.910;7.724;2023-07-22T08:11:38;12.90;;;8.15;;
39264;SDS011;42646;51.910;7.724;2023-07-22T08:14:06;12.45;;;7.88;;
39264;SDS011;42646;51.910;7.724;2023-07-22T08:16:34;12.63;;;8.20;;
39264;SDS011;42646;51.910;7.724;2023-07-22T08:19:02;11.55;;;8.25;;
39264;SDS011;42646;51.910;7.724;2023-07-22T08:21:30;11.27;;;7.43;;
39264;SDS011;42646;51.910;7.724;2023-07-22T08:23:59;11.20;;;8.10;;
39264;SDS011;42646;51.910;7.724;2023-07-22T08:26:28;14.15;;;8.63;;
39264;SDS011;42646;51.910;7.724;2023-07-22T08:28:57;12.48;;;8.65;;
39264;SDS011;42646;51.910;7.724;2023-07-22T08:31:25;12.65;;;8.45;;
39264;SDS011;42646;51.910;7.724;2023-07-22T08:33:54;12.10;;;8.02;;
39264;SDS011;42646;51.910;7.724;2023-07-22T08:36:23;11.00;;;7.45;;
39264;SDS011;42646;51.910;7.724;2023-07-22T08:38:53;11.77;;;7.65;;
39264;SDS011;42646;51.910;7.724;2023-07-22T08:41:22;11.68;;;7.90;;
39264;SDS011;42646;51.910;7.724;2023-07-22T08:43:52;11.70;;;7.53;;
39264;SDS011;42646;51.910;7.724;2023-07-22T08:46:22;11.50;;;7.75;;
39264;SDS011;42646;51.910;7.724;2023-07-22T08:48:55;15.95;;;9.13;;
39264;SDS011;42646;51.910;7.724;2023-07-22T08:51:28;12.43;;;8.10;;
39264;SDS011;42646;51.910;7.724;2023-07-22T08:53:58;14.13;;;8.13;;
39264;SDS011;42646;51.910;7.724;2023-07-22T08:56:39;13.60;;;8.52;;
39264;SDS011;42646;51.910;7.724;2023-07-22T08:59:07;12.18;;;7.88;;
39264;SDS011;42646;51.910;7.724;2023-07-22T09:01:35;8.95;;;6.57;;
39264;SDS011;42646;51.910;7.724;2023-07-22T09:04:07;9.93;;;7.15;;
39264;SDS011;42646;51.910;7.724;2023-07-22T09:06:35;12.00;;;7.20;;
39264;SDS011;42646;51.910;7.724;2023-07-22T09:09:04;10.88;;;7.22;;
39264;SDS011;42646;51.910;7.724;2023-07-22T09:11:35;10.70;;;7.25;;
39264;SDS011;42646;51.910;7.724;2023-07-22T09:14:04;10.02;;;6.57;;
39264;SDS011;42646;51.910;7.724;2023-07-22T09:16:32;8.90;;;6.35;;
39264;SDS011;42646;51.910;7.724;2023-07-22T09:19:02;12.05;;;7.13;;
39264;SDS011;42646;51.910;7.724;2023-07-22T09:21:31;8.90;;;6.22;;
39264;SDS011;42646;51.910;7.724;2023-07-22T09:24:09;9.32;;;6.05;;
39264;SDS011;42646;51.910;7.724;2023-07-22T09:26:48;9.27;;;5.88;;
39264;SDS011;42646;51.910;7.724;2023-07-22T09:29:17;10.63;;;6.85;;
39264;SDS011;42646;51.910;7.724;2023-07-22T09:31:49;10.27;;;5.95;;
39264;SDS011;42646;51.910;7.724;2023-07-22T09:34:18;9.57;;;6.03;;
39264;SDS011;42646;51.910;7.724;2023-07-22T09:36:49;8.25;;;5.70;;
39264;SDS011;42646;51.910;7.724;2023-07-22T09:39:18;9.23;;;6.50;;
39264;SDS011;42646;51.910;7.724;2023-07-22T09:41:46;8.52;;;6.18;;
39264;SDS011;42646;51.910;7.724;2023-07-22T09:44:14;7.82;;;5.32;;
39264;SDS011;42646;51.910;7.724;2023-07-22T09:46:48;8.18;;;5.70;;
39264;SDS011;42646;51.910;7.724;2023-07-22T09:49:18;7.25;;;5.28;;
39264;SDS011;42646;51.910;7.724;2023-07-22T09:51:50;10.85;;;5.80;;
39264;SDS011;42646;51.910;7.724;2023-07-22T09:54:28;8.07;;;5.55;;
39264;SDS011;42646;51.910;7.724;2023-07-22T09:56:57;9.80;;;6.00;;
39264;SDS011;42646;51.910;7.724;2023-07-22T09:59:25;8.98;;;5.95;;
39264;SDS011;42646;51.910;7.724;2023-07-22T10:01:57;7.10;;;5.25;;
39264;SDS011;42646;51.910;7.724;2023-07-22T10:04:29;7.20;;;5.30;;
39264;SDS011;42646;51.910;7.724;2023-07-22T10:07:01;8.35;;;5.05;;
39264;SDS011;42646;51.910;7.724;2023-07-22T10:09:29;7.95;;;5.22;;
39264;SDS011;42646;51.910;7.724;2023-07-22T10:11:58;7.00;;;5.15;;
39264;SDS011;42646;51.910;7.724;2023-07-22T10:14:52;7.18;;;4.97;;
39264;SDS011;42646;51.910;7.724;2023-07-22T10:20:15;6.05;;;4.28;;
39264;SDS011;42646;51.910;7.724;2023-07-22T10:22:46;7.40;;;4.43;;
39264;SDS011;42646;51.910;7.724;2023-07-22T10:25:16;6.10;;;4.30;;
39264;SDS011;42646;51.910;7.724;2023-07-22T10:27:45;6.75;;;4.30;;
39264;SDS011;42646;51.910;7.724;2023-07-22T10:30:15;6.97;;;4.80;;
39264;SDS011;42646;51.910;7.724;2023-07-22T10:32:45;6.28;;;4.10;;
39264;SDS011;42646;51.910;7.724;2023-07-22T10:35:23;6.18;;;4.43;;
39264;SDS011;42646;51.910;7.724;2023-07-22T10:38:08;8.20;;;4.85;;
39264;SDS011;42646;51.910;7.724;2023-07-22T10:40:46;7.18;;;4.75;;
39264;SDS011;42646;51.910;7.724;2023-07-22T10:43:17;7.47;;;5.05;;
39264;SDS011;42646;51.910;7.724;2023-07-22T10:45:49;6.22;;;4.80;;
39264;SDS011;42646;51.910;7.724;2023-07-22T10:48:19;6.72;;;4.38;;
39264;SDS011;42646;51.910;7.724;2023-07-22T10:50:51;5.18;;;3.72;;
39264;SDS011;42646;51.910;7.724;2023-07-22T10:53:20;5.80;;;4.05;;
39264;SDS011;42646;51.910;7.724;2023-07-22T10:56:06;7.05;;;4.43;;
39264;SDS011;42646;51.910;7.724;2023-07-22T10:58:55;8.00;;;4.88;;
39264;SDS011;42646;51.910;7.724;2023-07-22T11:01:51;6.60;;;4.43;;
39264;SDS011;42646;51.910;7.724;2023-07-22T11:04:22;6.53;;;4.72;;
39264;SDS011;42646;51.910;7.724;2023-07-22T11:07:04;7.40;;;5.30;;
39264;SDS011;42646;51.910;7.724;2023-07-22T11:09:33;6.55;;;4.43;;
39264;SDS011;42646;51.910;7.724;2023-07-22T11:12:02;7.05;;;4.50;;
39264;SDS011;42646;51.910;7.724;2023-07-22T11:14:50;7.55;;;4.40;;
39264;SDS011;42646;51.910;7.724;2023-07-22T11:17:27;6.82;;;4.15;;
39264;SDS011;42646;51.910;7.724;2023-07-22T11:19:56;6.75;;;4.35;;
39264;SDS011;42646;51.910;7.724;2023-07-22T11:22:25;6.10;;;3.90;;
39264;SDS011;42646;51.910;7.724;2023-07-22T11:24:56;6.50;;;3.80;;
39264;SDS011;42646;51.910;7.724;2023-07-22T11:27:25;5.97;;;3.90;;
39264;SDS011;42646;51.910;7.724;2023-07-22T11:29:53;6.90;;;3.97;;
39264;SDS011;42646;51.910;7.724;2023-07-22T11:32:27;5.65;;;3.97;;
39264;SDS011;42646;51.910;7.724;2023-07-22T11:35:19;5.75;;;3.53;;
39264;SDS011;42646;51.910;7.724;2023-07-22T11:37:48;5.63;;;4.07;;
39264;SDS011;42646;51.910;7.724;2023-07-22T11:40:16;6.20;;;3.70;;
39264;SDS011;42646;51.910;7.724;2023-07-22T11:42:44;6.40;;;3.80;;
39264;SDS011;42646;51.910;7.724;2023-07-22T11:45:14;6.55;;;4.25;;
39264;SDS011;42646;51.910;7.724;2023-07-22T11:47:42;6.70;;;4.00;;
39264;SDS011;42646;51.910;7.724;2023-07-22T11:50:14;5.97;;;4.20;;
39264;SDS011;42646;51.910;7.724;2023-07-22T11:52:42;7.95;;;4.47;;
39264;SDS011;42646;51.910;7.724;2023-07-22T11:55:12;6.10;;;4.05;;
39264;SDS011;42646;51.910;7.724;2023-07-22T11:57:52;6.25;;;4.22;;
39264;SDS011;42646;51.910;7.724;2023-07-22T12:00:21;5.63;;;4.05;;
39264;SDS011;42646;51.910;7.724;2023-07-22T12:02:49;5.90;;;4.13;;
39264;SDS011;42646;51.910;7.724;2023-07-22T12:05:23;6.40;;;3.85;;
39264;SDS011;42646;51.910;7.724;2023-07-22T12:07:50;6.03;;;4.28;;
39264;SDS011;42646;51.910;7.724;2023-07-22T12:10:19;6.18;;;4.05;;
39264;SDS011;42646;51.910;7.724;2023-07-22T12:12:51;9.27;;;4.38;;
39264;SDS011;42646;51.910;7.724;2023-07-22T12:15:20;5.78;;;4.15;;
39264;SDS011;42646;51.910;7.724;2023-07-22T12:17:51;6.20;;;4.28;;
39264;SDS011;42646;51.910;7.724;2023-07-22T12:20:46;5.70;;;3.72;;
39264;SDS011;42646;51.910;7.724;2023-07-22T12:23:15;6.05;;;4.28;;
39264;SDS011;42646;51.910;7.724;2023-07-22T12:25:46;5.05;;;3.83;;
39264;SDS011;42646;51.910;7.724;2023-07-22T12:28:13;7.00;;;4.00;;
39264;SDS011;42646;51.910;7.724;2023-07-22T12:30:45;5.60;;;3.75;;
39264;SDS011;42646;51.910;7.724;2023-07-22T12:33:13;7.18;;;3.85;;
39264;SDS011;42646;51.910;7.724;2023-07-22T12:35:41;6.00;;;3.83;;
39264;SDS011;42646;51.910;7.724;2023-07-22T12:38:08;5.63;;;4.05;;
39264;SDS011;42646;51.910;7.724;2023-07-22T12:40:36;5.00;;;3.17;;
39264;SDS011;42646;51.910;7.724;2023-07-22T12:43:06;5.65;;;3.67;;
39264;SDS011;42646;51.910;7.724;2023-07-22T12:45:53;5.28;;;3.80;;
39264;SDS011;42646;51.910;7.724;2023-07-22T12:48:21;5.10;;;3.28;;
39264;SDS011;42646;51.910;7.724;2023-07-22T12:50:50;7.38;;;3.85;;
39264;SDS011;42646;51.910;7.724;2023-07-22T12:53:18;5.20;;;3.70;;
39264;SDS011;42646;51.910;7.724;2023-07-22T12:55:47;4.65;;;3.30;;
39264;SDS011;42646;51.910;7.724;2023-07-22T12:58:16;4.53;;;2.90;;
39264;SDS011;42646;51.910;7.724;2023-07-22T13:00:44;5.10;;;3.55;;
39264;SDS011;42646;51.910;7.724;2023-07-22T13:03:12;4.25;;;3.17;;
39264;SDS011;42646;51.910;7.724;2023-07-22T13:05:42;6.05;;;3.50;;
39264;SDS011;42646;51.910;7.724;2023-07-22T13:08:14;5.28;;;3.30;;
39264;SDS011;42646;51.910;7.724;2023-07-22T13:10:42;4.53;;;3.10;;
39264;SDS011;42646;51.910;7.724;2023-07-22T13:13:11;4.47;;;2.88;;
39264;SDS011;42646;51.910;7.724;2023-07-22T13:15:40;5.50;;;3.20;;
39264;SDS011;42646;51.910;7.724;2023-07-22T13:18:08;4.57;;;2.80;;
39264;SDS011;42646;51.910;7.724;2023-07-22T13:20:37;6.78;;;3.22;;
39264;SDS011;42646;51.910;7.724;2023-07-22T13:23:05;4.95;;;3.00;;
39264;SDS011;42646;51.910;7.724;2023-07-22T13:25:33;4.07;;;2.70;;
39264;SDS011;42646;51.910;7.724;2023-07-22T13:28:00;5.38;;;3.00;;
39264;SDS011;42646;51.910;7.724;2023-07-22T13:30:29;4.00;;;2.75;;
39264;SDS011;42646;51.910;7.724;2023-07-22T13:32:58;5.68;;;3.20;;
39264;SDS011;42646;51.910;7.724;2023-07-22T13:35:28;4.43;;;2.95;;
39264;SDS011;42646;51.910;7.724;2023-07-22T13:37:58;3.92;;;2.78;;
39264;SDS011;42646;51.910;7.724;2023-07-22T13:40:26;4.85;;;2.92;;
39264;SDS011;42646;51.910;7.724;2023-07-22T13:42:53;4.70;;;2.50;;
39264;SDS011;42646;51.910;7.724;2023-07-22T13:45:21;3.92;;;2.58;;
39264;SDS011;42646;51.910;7.724;2023-07-22T13:47:49;3.88;;;2.83;;
39264;SDS011;42646;51.910;7.724;2023-07-22T13:50:19;4.82;;;2.80;;
39264;SDS011;42646;51.910;7.724;2023-07-22T13:52:48;4.60;;;2.90;;
39264;SDS011;42646;51.910;7.724;2023-07-22T13:55:16;4.25;;;2.70;;
39264;SDS011;42646;51.910;7.724;2023-07-22T13:57:44;4.10;;;2.63;;
39264;SDS011;42646;51.910;7.724;2023-07-22T14:00:12;4.75;;;2.70;;
39264;SDS011;42646;51.910;7.724;2023-07-22T14:02:40;4.45;;;2.55;;
39264;SDS011;42646;51.910;7.724;2023-07-22T14:05:08;4.88;;;3.10;;
39264;SDS011;42646;51.910;7.724;2023-07-22T14:07:38;4.00;;;2.50;;
39264;SDS011;42646;51.910;7.724;2023-07-22T14:10:06;3.83;;;2.55;;
39264;SDS011;42646;51.910;7.724;2023-07-22T14:12:35;4.25;;;2.38;;
39264;SDS011;42646;51.910;7.724;2023-07-22T14:15:03;4.03;;;2.40;;
39264;SDS011;42646;51.910;7.724;2023-07-22T14:17:37;5.32;;;2.38;;
39264;SDS011;42646;51.910;7.724;2023-07-22T14:20:05;3.65;;;2.15;;
39264;SDS011;42646;51.910;7.724;2023-07-22T14:22:41;3.90;;;2.20;;
39264;SDS011;42646;51.910;7.724;2023-07-22T14:25:09;5.38;;;2.45;;
39264;SDS011;42646;51.910;7.724;2023-07-22T14:27:38;3.67;;;2.40;;
39264;SDS011;42646;51.910;7.724;2023-07-22T14:30:07;3.10;;;2.20;;
39264;SDS011;42646;51.910;7.724;2023-07-22T14:32:35;3.45;;;2.03;;
39264;SDS011;42646;51.910;7.724;2023-07-22T14:35:04;3.67;;;2.05;;
39264;SDS011;42646;51.910;7.724;2023-07-22T14:37:33;3.58;;;2.15;;
39264;SDS011;42646;51.910;7.724;2023-07-22T14:40:02;3.35;;;2.00;;
39264;SDS011;42646;51.910;7.724;2023-07-22T14:42:31;3.58;;;2.20;;
39264;SDS011;42646;51.910;7.724;2023-07-22T14:45:00;3.85;;;2.22;;
39264;SDS011;42646;51.910;7.724;2023-07-22T14:47:28;3.85;;;2.10;;
39264;SDS011;42646;51.910;7.724;2023-07-22T14:49:56;3.33;;;2.05;;
39264;SDS011;42646;51.910;7.724;2023-07-22T14:52:27;4.30;;;2.00;;
39264;SDS011;42646;51.910;7.724;2023-07-22T14:54:58;3.60;;;2.15;;
39264;SDS011;42646;51.910;7.724;2023-07-22T14:57:27;3.63;;;2.10;;
39264;SDS011;42646;51.910;7.724;2023-07-22T14:59:57;4.55;;;1.98;;
39264;SDS011;42646;51.910;7.724;2023-07-22T15:02:25;4.50;;;2.42;;
39264;SDS011;42646;51.910;7.724;2023-07-22T15:04:52;4.78;;;2.08;;
39264;SDS011;42646;51.910;7.724;2023-07-22T15:07:21;3.90;;;2.20;;